sensor_id;sensor_type;location;lat;lon;timestamp;temperature;humidity
3055;DHT22;1537;52.018;8.542;2023-09-19T00:01:15;16.10;99.90
3055;DHT22;1537;52.018;8.542;2023-09-19T00:04:44;16.10;99.90
3055;DHT22;1537;52.018;8.542;2023-09-19T00:08:08;16.00;99.90
3055;DHT22;1537;52.018;8.542;2023-09-19T00:11:32;16.10;99.90
3055;DHT22;1537;52.018;8.542;2023-09-19T00:14:58;16.00;99.90
3055;DHT22;1537;52.018;8.542;2023-09-19T00:18:24;16.00;99.90
3055;DHT22;1537;52.018;8.542;2023-09-19T00:21:52;16.00;99.90
3055;DHT22;1537;52.018;8.542;2023-09-19T00:25:16;16.00;99.90
3055;DHT22;1537;52.018;8.542;2023-09-19T00:28:41;16.00;99.90
3055;DHT22;1537;52.018;8.542;2023-09-19T00:32:07;16.10;99.90
3055;DHT22;1537;52.018;8.542;2023-09-19T00:35:32;16.10;99.90
3055;DHT22;1537;52.018;8.542;2023-09-19T00:38:57;16.10;99.90
3055;DHT22;1537;52.018;8.542;2023-09-19T00:42:22;16.10;99.90
3055;DHT22;1537;52.018;8.542;2023-09-19T00:45:47;16.20;99.90
3055;DHT22;1537;52.018;8.542;2023-09-19T00:49:12;16.20;99.90
3055;DHT22;1537;52.018;8.542;2023-09-19T00:52:38;16.20;99.90
3055;DHT22;1537;52.018;8.542;2023-09-19T00:56:07;16.20;99.90
3055;DHT22;1537;52.018;8.542;2023-09-19T00:59:31;16.20;99.90
3055;DHT22;1537;52.018;8.542;2023-09-19T01:02:54;16.10;99.90
3055;DHT22;1537;52.018;8.542;2023-09-19T01:06:20;16.10;99.90
3055;DHT22;1537;52.018;8.542;2023-09-19T01:09:47;16.10;99.90
3055;DHT22;1537;52.018;8.542;2023-09-19T01:13:21;16.20;99.90
3055;DHT22;1537;52.018;8.542;2023-09-19T01:16:58;16.10;99.90
3055;DHT22;1537;52.018;8.542;2023-09-19T01:20:33;16.10;99.90
3055;DHT22;1537;52.018;8.542;2023-09-19T01:24:22;16.10;99.90
3055;DHT22;1537;52.018;8.542;2023-09-19T01:28:10;16.00;99.90
3055;DHT22;1537;52.018;8.542;2023-09-19T01:31:40;16.00;99.90
3055;DHT22;1537;52.018;8.542;2023-09-19T01:35:07;16.10;99.90
3055;DHT22;1537;52.018;8.542;2023-09-19T01:38:37;16.10;99.90
3055;DHT22;1537;52.018;8.542;2023-09-19T01:42:07;16.10;99.90
3055;DHT22;1537;52.018;8.542;2023-09-19T01:45:37;16.20;99.90
3055;DHT22;1537;52.018;8.542;2023-09-19T01:49:15;16.20;99.90
3055;DHT22;1537;52.018;8.542;2023-09-19T01:52:45;16.20;99.90
3055;DHT22;1537;52.018;8.542;2023-09-19T01:56:19;16.30;99.90
3055;DHT22;1537;52.018;8.542;2023-09-19T01:59:50;16.20;99.90
3055;DHT22;1537;52.018;8.542;2023-09-19T02:03:16;16.20;99.90
3055;DHT22;1537;52.018;8.542;2023-09-19T02:06:42;16.20;99.90
3055;DHT22;1537;52.018;8.542;2023-09-19T02:10:07;16.20;99.90
3055;DHT22;1537;52.018;8.542;2023-09-19T02:13:35;16.20;99.90
3055;DHT22;1537;52.018;8.542;2023-09-19T02:16:59;16.20;99.90
3055;DHT22;1537;52.018;8.542;2023-09-19T02:20:24;16.20;99.90
3055;DHT22;1537;52.018;8.542;2023-09-19T02:23:50;16.20;99.90
3055;DHT22;1537;52.018;8.542;2023-09-19T02:27:14;16.10;99.90
3055;DHT22;1537;52.018;8.542;2023-09-19T02:30:40;16.00;99.90
3055;DHT22;1537;52.018;8.542;2023-09-19T02:34:04;16.00;99.90
3055;DHT22;1537;52.018;8.542;2023-09-19T02:37:39;16.10;99.90
3055;DHT22;1537;52.018;8.542;2023-09-19T02:41:05;16.10;99.90
3055;DHT22;1537;52.018;8.542;2023-09-19T02:44:30;16.10;99.90
3055;DHT22;1537;52.018;8.542;2023-09-19T02:48:01;16.00;99.90
3055;DHT22;1537;52.018;8.542;2023-09-19T02:51:27;16.00;99.90
3055;DHT22;1537;52.018;8.542;2023-09-19T02:54:51;16.00;99.90
3055;DHT22;1537;52.018;8.542;2023-09-19T02:58:16;15.90;99.90
3055;DHT22;1537;52.018;8.542;2023-09-19T03:01:43;15.90;99.90
3055;DHT22;1537;52.018;8.542;2023-09-19T03:05:09;15.80;99.90
3055;DHT22;1537;52.018;8.542;2023-09-19T03:08:42;15.70;99.90
3055;DHT22;1537;52.018;8.542;2023-09-19T03:12:07;15.60;99.90
3055;DHT22;1537;52.018;8.542;2023-09-19T03:15:35;15.60;99.90
3055;DHT22;1537;52.018;8.542;2023-09-19T03:19:02;15.60;99.90
3055;DHT22;1537;52.018;8.542;2023-09-19T03:22:27;15.70;99.90
3055;DHT22;1537;52.018;8.542;2023-09-19T03:25:52;15.70;99.90
3055;DHT22;1537;52.018;8.542;2023-09-19T03:29:20;15.70;99.90
3055;DHT22;1537;52.018;8.542;2023-09-19T03:32:47;15.60;99.90
3055;DHT22;1537;52.018;8.542;2023-09-19T03:36:14;15.50;99.90
3055;DHT22;1537;52.018;8.542;2023-09-19T03:39:44;15.40;99.90
3055;DHT22;1537;52.018;8.542;2023-09-19T03:43:10;15.40;99.90
3055;DHT22;1537;52.018;8.542;2023-09-19T03:46:34;15.40;99.90
3055;DHT22;1537;52.018;8.542;2023-09-19T03:50:00;15.30;99.90
3055;DHT22;1537;52.018;8.542;2023-09-19T03:53:25;15.30;99.90
3055;DHT22;1537;52.018;8.542;2023-09-19T03:56:50;15.30;99.90
3055;DHT22;1537;52.018;8.542;2023-09-19T04:00:14;15.30;99.90
3055;DHT22;1537;52.018;8.542;2023-09-19T04:03:43;15.20;99.90
3055;DHT22;1537;52.018;8.542;2023-09-19T04:07:12;15.20;99.90
3055;DHT22;1537;52.018;8.542;2023-09-19T04:10:36;15.10;99.90
3055;DHT22;1537;52.018;8.542;2023-09-19T04:14:03;15.00;99.90
3055;DHT22;1537;52.018;8.542;2023-09-19T04:17:27;15.00;99.90
3055;DHT22;1537;52.018;8.542;2023-09-19T04:20:51;14.90;99.90
3055;DHT22;1537;52.018;8.542;2023-09-19T04:24:16;14.90;99.90
3055;DHT22;1537;52.018;8.542;2023-09-19T04:27:42;14.80;99.90
3055;DHT22;1537;52.018;8.542;2023-09-19T04:31:07;14.80;99.90
3055;DHT22;1537;52.018;8.542;2023-09-19T04:34:33;14.80;99.90
3055;DHT22;1537;52.018;8.542;2023-09-19T04:37:58;14.70;99.90
3055;DHT22;1537;52.018;8.542;2023-09-19T04:41:24;14.80;99.90
3055;DHT22;1537;52.018;8.542;2023-09-19T04:44:49;14.80;99.90
3055;DHT22;1537;52.018;8.542;2023-09-19T04:48:15;14.80;99.90
3055;DHT22;1537;52.018;8.542;2023-09-19T04:51:39;14.70;99.90
3055;DHT22;1537;52.018;8.542;2023-09-19T04:55:04;14.70;99.90
3055;DHT22;1537;52.018;8.542;2023-09-19T04:58:31;14.70;99.90
3055;DHT22;1537;52.018;8.542;2023-09-19T05:01:58;14.60;99.90
3055;DHT22;1537;52.018;8.542;2023-09-19T05:05:22;14.60;99.90
3055;DHT22;1537;52.018;8.542;2023-09-19T05:08:48;14.60;99.90
3055;DHT22;1537;52.018;8.542;2023-09-19T05:12:13;14.60;99.90
3055;DHT22;1537;52.018;8.542;2023-09-19T05:15:43;14.60;99.90
3055;DHT22;1537;52.018;8.542;2023-09-19T05:19:07;14.60;99.90
3055;DHT22;1537;52.018;8.542;2023-09-19T05:22:34;14.60;99.90
3055;DHT22;1537;52.018;8.542;2023-09-19T05:25:58;14.50;99.90
3055;DHT22;1537;52.018;8.542;2023-09-19T05:29:22;14.40;99.90
3055;DHT22;1537;52.018;8.542;2023-09-19T05:32:48;14.40;99.90
3055;DHT22;1537;52.018;8.542;2023-09-19T05:36:12;14.40;99.90
3055;DHT22;1537;52.018;8.542;2023-09-19T05:39:38;14.40;99.90
3055;DHT22;1537;52.018;8.542;2023-09-19T05:43:03;14.40;99.90
3055;DHT22;1537;52.018;8.542;2023-09-19T05:46:28;14.40;99.90
3055;DHT22;1537;52.018;8.542;2023-09-19T05:49:54;14.40;99.90
3055;DHT22;1537;52.018;8.542;2023-09-19T05:53:19;14.50;99.90
3055;DHT22;1537;52.018;8.542;2023-09-19T05:56:43;14.60;99.90
3055;DHT22;1537;52.018;8.542;2023-09-19T06:00:11;14.60;99.90
3055;DHT22;1537;52.018;8.542;2023-09-19T06:03:36;14.60;99.90
3055;DHT22;1537;52.018;8.542;2023-09-19T06:07:03;14.60;99.90
3055;DHT22;1537;52.018;8.542;2023-09-19T06:10:28;14.70;99.90
3055;DHT22;1537;52.018;8.542;2023-09-19T06:13:53;14.70;99.90
3055;DHT22;1537;52.018;8.542;2023-09-19T06:17:18;14.70;99.90
3055;DHT22;1537;52.018;8.542;2023-09-19T06:20:42;14.80;99.90
3055;DHT22;1537;52.018;8.542;2023-09-19T06:24:15;14.80;99.90
3055;DHT22;1537;52.018;8.542;2023-09-19T06:27:39;15.00;99.90
3055;DHT22;1537;52.018;8.542;2023-09-19T06:31:05;15.70;99.90
3055;DHT22;1537;52.018;8.542;2023-09-19T06:34:32;16.70;99.90
3055;DHT22;1537;52.018;8.542;2023-09-19T06:38:03;17.70;99.90
3055;DHT22;1537;52.018;8.542;2023-09-19T06:41:30;18.40;99.90
3055;DHT22;1537;52.018;8.542;2023-09-19T06:45:00;19.00;99.90
3055;DHT22;1537;52.018;8.542;2023-09-19T06:48:27;19.30;99.90
3055;DHT22;1537;52.018;8.542;2023-09-19T06:51:55;19.40;99.90
3055;DHT22;1537;52.018;8.542;2023-09-19T06:55:21;19.10;99.90
3055;DHT22;1537;52.018;8.542;2023-09-19T06:58:52;18.60;99.90
3055;DHT22;1537;52.018;8.542;2023-09-19T07:02:21;18.10;99.90
3055;DHT22;1537;52.018;8.542;2023-09-19T07:05:47;17.40;99.90
3055;DHT22;1537;52.018;8.542;2023-09-19T07:09:12;17.00;99.90
3055;DHT22;1537;52.018;8.542;2023-09-19T07:12:37;16.80;99.90
3055;DHT22;1537;52.018;8.542;2023-09-19T07:16:05;16.60;99.90
3055;DHT22;1537;52.018;8.542;2023-09-19T07:19:31;16.50;99.90
3055;DHT22;1537;52.018;8.542;2023-09-19T07:22:55;16.50;99.90
3055;DHT22;1537;52.018;8.542;2023-09-19T07:26:22;16.60;99.90
3055;DHT22;1537;52.018;8.542;2023-09-19T07:29:46;16.80;99.90
3055;DHT22;1537;52.018;8.542;2023-09-19T07:33:14;17.20;99.90
3055;DHT22;1537;52.018;8.542;2023-09-19T07:36:38;17.70;99.90
3055;DHT22;1537;52.018;8.542;2023-09-19T07:40:05;17.60;99.90
3055;DHT22;1537;52.018;8.542;2023-09-19T07:43:30;18.50;99.90
3055;DHT22;1537;52.018;8.542;2023-09-19T07:46:56;19.30;99.90
3055;DHT22;1537;52.018;8.542;2023-09-19T07:50:21;20.70;99.90
3055;DHT22;1537;52.018;8.542;2023-09-19T07:53:45;21.20;99.90
3055;DHT22;1537;52.018;8.542;2023-09-19T07:57:11;20.90;99.90
3055;DHT22;1537;52.018;8.542;2023-09-19T08:00:34;20.60;99.90
3055;DHT22;1537;52.018;8.542;2023-09-19T08:03:58;20.20;99.90
3055;DHT22;1537;52.018;8.542;2023-09-19T08:07:26;19.90;99.90
3055;DHT22;1537;52.018;8.542;2023-09-19T08:10:53;19.50;99.90
3055;DHT22;1537;52.018;8.542;2023-09-19T08:14:18;19.00;99.90
3055;DHT22;1537;52.018;8.542;2023-09-19T08:17:42;18.90;99.90
3055;DHT22;1537;52.018;8.542;2023-09-19T08:21:06;19.10;99.90
3055;DHT22;1537;52.018;8.542;2023-09-19T08:24:34;18.60;99.90
3055;DHT22;1537;52.018;8.542;2023-09-19T08:27:58;18.70;99.90
3055;DHT22;1537;52.018;8.542;2023-09-19T08:31:24;19.00;99.90
3055;DHT22;1537;52.018;8.542;2023-09-19T08:34:49;19.50;99.90
3055;DHT22;1537;52.018;8.542;2023-09-19T08:38:13;20.10;99.90
3055;DHT22;1537;52.018;8.542;2023-09-19T08:41:38;20.40;99.90
3055;DHT22;1537;52.018;8.542;2023-09-19T08:45:02;20.10;99.90
3055;DHT22;1537;52.018;8.542;2023-09-19T08:48:27;20.20;99.90
3055;DHT22;1537;52.018;8.542;2023-09-19T08:51:56;19.70;99.90
3055;DHT22;1537;52.018;8.542;2023-09-19T08:55:27;19.60;99.90
3055;DHT22;1537;52.018;8.542;2023-09-19T08:58:57;19.90;99.90
3055;DHT22;1537;52.018;8.542;2023-09-19T09:02:24;19.90;99.90
3055;DHT22;1537;52.018;8.542;2023-09-19T09:05:50;19.70;99.90
3055;DHT22;1537;52.018;8.542;2023-09-19T09:09:14;19.50;99.90
3055;DHT22;1537;52.018;8.542;2023-09-19T09:12:38;19.40;99.90
3055;DHT22;1537;52.018;8.542;2023-09-19T09:16:05;19.50;99.90
3055;DHT22;1537;52.018;8.542;2023-09-19T09:19:30;19.30;99.90
3055;DHT22;1537;52.018;8.542;2023-09-19T09:22:55;19.90;99.90
3055;DHT22;1537;52.018;8.542;2023-09-19T09:26:41;19.60;99.90
3055;DHT22;1537;52.018;8.542;2023-09-19T09:30:07;19.90;99.90
3055;DHT22;1537;52.018;8.542;2023-09-19T09:33:33;20.30;99.90
3055;DHT22;1537;52.018;8.542;2023-09-19T09:36:57;20.00;99.90
3055;DHT22;1537;52.018;8.542;2023-09-19T09:40:20;20.10;99.90
3055;DHT22;1537;52.018;8.542;2023-09-19T09:44:12;20.30;99.90
3055;DHT22;1537;52.018;8.542;2023-09-19T09:47:45;20.60;99.90
3055;DHT22;1537;52.018;8.542;2023-09-19T09:51:29;20.90;99.90
3055;DHT22;1537;52.018;8.542;2023-09-19T09:55:00;21.60;99.90
3055;DHT22;1537;52.018;8.542;2023-09-19T09:58:28;21.30;99.90
3055;DHT22;1537;52.018;8.542;2023-09-19T10:01:56;21.80;99.90
3055;DHT22;1537;52.018;8.542;2023-09-19T10:05:25;21.20;99.90
3055;DHT22;1537;52.018;8.542;2023-09-19T10:09:05;21.00;99.90
3055;DHT22;1537;52.018;8.542;2023-09-19T10:12:34;21.10;99.90
3055;DHT22;1537;52.018;8.542;2023-09-19T10:16:06;21.70;99.90
3055;DHT22;1537;52.018;8.542;2023-09-19T10:19:37;21.60;99.90
3055;DHT22;1537;52.018;8.542;2023-09-19T10:23:04;21.40;99.90
3055;DHT22;1537;52.018;8.542;2023-09-19T10:26:34;21.30;99.90
3055;DHT22;1537;52.018;8.542;2023-09-19T10:29:59;21.50;99.90
3055;DHT22;1537;52.018;8.542;2023-09-19T10:33:24;22.00;99.90
3055;DHT22;1537;52.018;8.542;2023-09-19T10:36:51;21.60;99.90
3055;DHT22;1537;52.018;8.542;2023-09-19T10:40:16;21.20;99.90
3055;DHT22;1537;52.018;8.542;2023-09-19T10:43:45;20.60;99.90
3055;DHT22;1537;52.018;8.542;2023-09-19T10:47:11;20.40;99.90
3055;DHT22;1537;52.018;8.542;2023-09-19T10:50:43;20.50;99.90
3055;DHT22;1537;52.018;8.542;2023-09-19T10:54:11;20.50;99.90
3055;DHT22;1537;52.018;8.542;2023-09-19T10:57:38;20.60;99.90
3055;DHT22;1537;52.018;8.542;2023-09-19T11:01:04;21.40;99.90
3055;DHT22;1537;52.018;8.542;2023-09-19T11:04:35;21.10;99.90
3055;DHT22;1537;52.018;8.542;2023-09-19T11:08:01;20.50;99.90
3055;DHT22;1537;52.018;8.542;2023-09-19T11:11:43;20.60;99.90
3055;DHT22;1537;52.018;8.542;2023-09-19T11:15:09;20.60;99.90
3055;DHT22;1537;52.018;8.542;2023-09-19T11:18:53;20.30;99.90
3055;DHT22;1537;52.018;8.542;2023-09-19T11:22:18;20.00;99.90
3055;DHT22;1537;52.018;8.542;2023-09-19T11:25:45;20.00;99.90
3055;DHT22;1537;52.018;8.542;2023-09-19T11:29:25;20.00;99.90
3055;DHT22;1537;52.018;8.542;2023-09-19T11:33:16;20.10;99.90
3055;DHT22;1537;52.018;8.542;2023-09-19T11:36:44;20.10;99.90
3055;DHT22;1537;52.018;8.542;2023-09-19T11:40:09;19.90;99.90
3055;DHT22;1537;52.018;8.542;2023-09-19T11:43:38;19.80;99.90
3055;DHT22;1537;52.018;8.542;2023-09-19T11:47:05;20.00;99.90
3055;DHT22;1537;52.018;8.542;2023-09-19T11:50:31;20.10;99.90
3055;DHT22;1537;52.018;8.542;2023-09-19T11:53:57;20.10;99.90
3055;DHT22;1537;52.018;8.542;2023-09-19T11:57:22;20.20;99.90
3055;DHT22;1537;52.018;8.542;2023-09-19T12:00:54;20.30;99.90
3055;DHT22;1537;52.018;8.542;2023-09-19T12:04:35;20.50;99.90
3055;DHT22;1537;52.018;8.542;2023-09-19T12:08:00;20.20;99.90
3055;DHT22;1537;52.018;8.542;2023-09-19T12:11:30;20.30;99.90
3055;DHT22;1537;52.018;8.542;2023-09-19T12:14:57;20.10;99.90
3055;DHT22;1537;52.018;8.542;2023-09-19T12:18:27;20.20;99.90
3055;DHT22;1537;52.018;8.542;2023-09-19T12:21:59;20.30;99.90
3055;DHT22;1537;52.018;8.542;2023-09-19T12:25:41;20.20;99.90
3055;DHT22;1537;52.018;8.542;2023-09-19T12:29:15;20.10;99.90
3055;DHT22;1537;52.018;8.542;2023-09-19T12:32:41;20.10;99.90
3055;DHT22;1537;52.018;8.542;2023-09-19T12:36:19;20.30;99.90
3055;DHT22;1537;52.018;8.542;2023-09-19T12:39:48;20.00;99.90
3055;DHT22;1537;52.018;8.542;2023-09-19T12:43:13;20.10;99.90
3055;DHT22;1537;52.018;8.542;2023-09-19T12:46:41;20.40;99.90
3055;DHT22;1537;52.018;8.542;2023-09-19T12:50:10;20.60;99.90
3055;DHT22;1537;52.018;8.542;2023-09-19T12:53:40;20.80;99.90
3055;DHT22;1537;52.018;8.542;2023-09-19T12:57:06;20.90;99.90
3055;DHT22;1537;52.018;8.542;2023-09-19T13:00:34;20.70;99.90
3055;DHT22;1537;52.018;8.542;2023-09-19T13:04:12;20.70;99.70
3055;DHT22;1537;52.018;8.542;2023-09-19T13:07:41;20.70;99.50
3055;DHT22;1537;52.018;8.542;2023-09-19T13:11:10;20.60;99.80
3055;DHT22;1537;52.018;8.542;2023-09-19T13:14:35;20.70;99.90
3055;DHT22;1537;52.018;8.542;2023-09-19T13:18:11;20.60;99.40
3055;DHT22;1537;52.018;8.542;2023-09-19T13:21:37;20.70;99.40
3055;DHT22;1537;52.018;8.542;2023-09-19T13:25:07;20.90;99.20
3055;DHT22;1537;52.018;8.542;2023-09-19T13:28:41;21.10;99.40
3055;DHT22;1537;52.018;8.542;2023-09-19T13:32:06;21.00;99.40
3055;DHT22;1537;52.018;8.542;2023-09-19T13:35:34;21.10;99.50
3055;DHT22;1537;52.018;8.542;2023-09-19T13:38:59;21.10;99.50
3055;DHT22;1537;52.018;8.542;2023-09-19T13:42:24;21.20;99.60
3055;DHT22;1537;52.018;8.542;2023-09-19T13:45:52;21.10;99.40
3055;DHT22;1537;52.018;8.542;2023-09-19T13:49:15;20.80;99.70
3055;DHT22;1537;52.018;8.542;2023-09-19T13:52:43;20.70;99.60
3055;DHT22;1537;52.018;8.542;2023-09-19T13:56:08;20.60;99.90
3055;DHT22;1537;52.018;8.542;2023-09-19T13:59:33;20.60;99.30
3055;DHT22;1537;52.018;8.542;2023-09-19T14:02:57;20.60;99.60
3055;DHT22;1537;52.018;8.542;2023-09-19T14:06:21;20.50;99.60
3055;DHT22;1537;52.018;8.542;2023-09-19T14:09:45;20.30;99.90
3055;DHT22;1537;52.018;8.542;2023-09-19T14:13:11;20.40;99.80
3055;DHT22;1537;52.018;8.542;2023-09-19T14:16:38;20.60;99.60
3055;DHT22;1537;52.018;8.542;2023-09-19T14:20:05;20.90;99.30
3055;DHT22;1537;52.018;8.542;2023-09-19T14:23:35;21.00;99.20
3055;DHT22;1537;52.018;8.542;2023-09-19T14:26:59;20.90;98.90
3055;DHT22;1537;52.018;8.542;2023-09-19T14:30:24;20.70;99.30
3055;DHT22;1537;52.018;8.542;2023-09-19T14:33:53;20.70;99.80
3055;DHT22;1537;52.018;8.542;2023-09-19T14:37:17;20.40;99.70
3055;DHT22;1537;52.018;8.542;2023-09-19T14:40:43;20.40;99.90
3055;DHT22;1537;52.018;8.542;2023-09-19T14:44:07;20.30;99.90
3055;DHT22;1537;52.018;8.542;2023-09-19T14:47:34;20.30;99.90
3055;DHT22;1537;52.018;8.542;2023-09-19T14:51:02;20.30;99.90
3055;DHT22;1537;52.018;8.542;2023-09-19T14:54:26;20.30;99.90
3055;DHT22;1537;52.018;8.542;2023-09-19T14:57:51;20.10;99.90
3055;DHT22;1537;52.018;8.542;2023-09-19T15:01:15;20.00;99.90
3055;DHT22;1537;52.018;8.542;2023-09-19T15:04:40;20.00;99.90
3055;DHT22;1537;52.018;8.542;2023-09-19T15:08:07;20.00;99.90
3055;DHT22;1537;52.018;8.542;2023-09-19T15:11:31;20.00;99.90
3055;DHT22;1537;52.018;8.542;2023-09-19T15:14:54;20.10;99.90
3055;DHT22;1537;52.018;8.542;2023-09-19T15:18:18;20.10;99.90
3055;DHT22;1537;52.018;8.542;2023-09-19T15:21:44;20.10;99.90
3055;DHT22;1537;52.018;8.542;2023-09-19T15:25:08;20.10;99.90
3055;DHT22;1537;52.018;8.542;2023-09-19T15:28:32;20.10;99.90
3055;DHT22;1537;52.018;8.542;2023-09-19T15:31:56;20.10;99.90
3055;DHT22;1537;52.018;8.542;2023-09-19T15:35:25;20.10;99.90
3055;DHT22;1537;52.018;8.542;2023-09-19T15:39:01;20.10;99.90
3055;DHT22;1537;52.018;8.542;2023-09-19T15:42:25;20.00;99.90
3055;DHT22;1537;52.018;8.542;2023-09-19T15:45:49;19.90;99.70
3055;DHT22;1537;52.018;8.542;2023-09-19T15:49:13;19.80;99.60
3055;DHT22;1537;52.018;8.542;2023-09-19T15:52:36;19.80;99.60
3055;DHT22;1537;52.018;8.542;2023-09-19T15:56:05;19.80;99.70
3055;DHT22;1537;52.018;8.542;2023-09-19T15:59:29;19.90;99.90
3055;DHT22;1537;52.018;8.542;2023-09-19T16:02:53;19.80;99.60
3055;DHT22;1537;52.018;8.542;2023-09-19T16:06:18;19.80;99.90
3055;DHT22;1537;52.018;8.542;2023-09-19T16:09:42;19.80;99.80
3055;DHT22;1537;52.018;8.542;2023-09-19T16:13:07;19.70;99.90
3055;DHT22;1537;52.018;8.542;2023-09-19T16:16:31;19.60;99.90
3055;DHT22;1537;52.018;8.542;2023-09-19T16:19:57;19.60;99.90
3055;DHT22;1537;52.018;8.542;2023-09-19T16:23:21;19.60;99.90
3055;DHT22;1537;52.018;8.542;2023-09-19T16:26:45;19.60;99.90
3055;DHT22;1537;52.018;8.542;2023-09-19T16:30:10;19.70;99.90
3055;DHT22;1537;52.018;8.542;2023-09-19T16:33:39;19.50;99.90
3055;DHT22;1537;52.018;8.542;2023-09-19T16:37:03;19.40;99.90
3055;DHT22;1537;52.018;8.542;2023-09-19T16:40:27;19.30;99.90
3055;DHT22;1537;52.018;8.542;2023-09-19T16:43:51;19.20;99.90
3055;DHT22;1537;52.018;8.542;2023-09-19T16:47:16;19.10;99.90
3055;DHT22;1537;52.018;8.542;2023-09-19T16:50:40;19.10;99.90
3055;DHT22;1537;52.018;8.542;2023-09-19T16:54:05;19.00;99.90
3055;DHT22;1537;52.018;8.542;2023-09-19T16:57:29;18.90;99.90
3055;DHT22;1537;52.018;8.542;2023-09-19T17:00:53;18.90;99.90
3055;DHT22;1537;52.018;8.542;2023-09-19T17:04:19;18.90;99.90
3055;DHT22;1537;52.018;8.542;2023-09-19T17:07:43;18.90;99.90
3055;DHT22;1537;52.018;8.542;2023-09-19T17:11:09;18.80;99.90
3055;DHT22;1537;52.018;8.542;2023-09-19T17:14:34;18.80;99.90
3055;DHT22;1537;52.018;8.542;2023-09-19T17:17:58;18.80;99.90
3055;DHT22;1537;52.018;8.542;2023-09-19T17:21:24;18.80;99.90
3055;DHT22;1537;52.018;8.542;2023-09-19T17:24:49;18.70;99.90
3055;DHT22;1537;52.018;8.542;2023-09-19T17:28:13;18.70;99.90
3055;DHT22;1537;52.018;8.542;2023-09-19T17:31:37;18.70;99.90
3055;DHT22;1537;52.018;8.542;2023-09-19T17:35:04;18.80;99.90
3055;DHT22;1537;52.018;8.542;2023-09-19T17:38:29;18.80;99.90
3055;DHT22;1537;52.018;8.542;2023-09-19T17:41:53;18.80;99.90
3055;DHT22;1537;52.018;8.542;2023-09-19T17:45:17;18.80;99.90
3055;DHT22;1537;52.018;8.542;2023-09-19T17:48:42;18.80;99.90
3055;DHT22;1537;52.018;8.542;2023-09-19T17:52:07;18.80;99.90
3055;DHT22;1537;52.018;8.542;2023-09-19T17:55:37;18.80;99.90
3055;DHT22;1537;52.018;8.542;2023-09-19T17:59:02;18.70;99.90
3055;DHT22;1537;52.018;8.542;2023-09-19T18:02:26;18.70;99.90
3055;DHT22;1537;52.018;8.542;2023-09-19T18:05:51;18.60;99.90
3055;DHT22;1537;52.018;8.542;2023-09-19T18:09:15;18.60;99.90
3055;DHT22;1537;52.018;8.542;2023-09-19T18:12:42;18.60;99.90
3055;DHT22;1537;52.018;8.542;2023-09-19T18:16:08;18.50;99.90
3055;DHT22;1537;52.018;8.542;2023-09-19T18:19:32;18.50;99.90
3055;DHT22;1537;52.018;8.542;2023-09-19T18:22:56;18.40;99.90
3055;DHT22;1537;52.018;8.542;2023-09-19T18:26:21;18.40;99.90
3055;DHT22;1537;52.018;8.542;2023-09-19T18:29:46;18.40;99.90
3055;DHT22;1537;52.018;8.542;2023-09-19T18:33:10;18.30;99.90
3055;DHT22;1537;52.018;8.542;2023-09-19T18:36:36;18.30;99.90
3055;DHT22;1537;52.018;8.542;2023-09-19T18:40:00;18.30;99.90
3055;DHT22;1537;52.018;8.542;2023-09-19T18:43:24;18.30;99.90
3055;DHT22;1537;52.018;8.542;2023-09-19T18:46:50;18.30;99.90
3055;DHT22;1537;52.018;8.542;2023-09-19T18:50:15;18.30;99.90
3055;DHT22;1537;52.018;8.542;2023-09-19T18:53:39;18.30;99.90
3055;DHT22;1537;52.018;8.542;2023-09-19T18:57:06;18.30;99.90
3055;DHT22;1537;52.018;8.542;2023-09-19T19:00:30;18.30;99.90
3055;DHT22;1537;52.018;8.542;2023-09-19T19:03:56;18.20;99.90
3055;DHT22;1537;52.018;8.542;2023-09-19T19:07:20;18.20;99.90
3055;DHT22;1537;52.018;8.542;2023-09-19T19:10:44;18.20;99.90
3055;DHT22;1537;52.018;8.542;2023-09-19T19:14:08;18.30;99.90
3055;DHT22;1537;52.018;8.542;2023-09-19T19:17:33;18.20;99.90
3055;DHT22;1537;52.018;8.542;2023-09-19T19:20:59;18.20;99.90
3055;DHT22;1537;52.018;8.542;2023-09-19T19:24:23;18.20;99.90
3055;DHT22;1537;52.018;8.542;2023-09-19T19:27:46;18.20;99.90
3055;DHT22;1537;52.018;8.542;2023-09-19T19:31:12;18.20;99.90
3055;DHT22;1537;52.018;8.542;2023-09-19T19:34:36;18.20;99.90
3055;DHT22;1537;52.018;8.542;2023-09-19T19:38:01;18.20;99.90
3055;DHT22;1537;52.018;8.542;2023-09-19T19:41:26;18.20;99.90
3055;DHT22;1537;52.018;8.542;2023-09-19T19:44:50;18.20;99.90
3055;DHT22;1537;52.018;8.542;2023-09-19T19:48:16;18.20;99.90
3055;DHT22;1537;52.018;8.542;2023-09-19T19:51:40;18.20;99.90
3055;DHT22;1537;52.018;8.542;2023-09-19T19:55:07;18.20;99.90
3055;DHT22;1537;52.018;8.542;2023-09-19T19:58:31;18.20;99.90
3055;DHT22;1537;52.018;8.542;2023-09-19T20:01:55;18.20;99.90
3055;DHT22;1537;52.018;8.542;2023-09-19T20:05:19;18.20;99.90
3055;DHT22;1537;52.018;8.542;2023-09-19T20:08:43;18.10;99.90
3055;DHT22;1537;52.018;8.542;2023-09-19T20:12:09;18.10;99.90
3055;DHT22;1537;52.018;8.542;2023-09-19T20:15:33;18.10;99.90
3055;DHT22;1537;52.018;8.542;2023-09-19T20:19:00;18.00;99.90
3055;DHT22;1537;52.018;8.542;2023-09-19T20:22:26;17.90;99.90
3055;DHT22;1537;52.018;8.542;2023-09-19T20:25:50;17.90;99.90
3055;DHT22;1537;52.018;8.542;2023-09-19T20:29:15;17.80;99.90
3055;DHT22;1537;52.018;8.542;2023-09-19T20:32:42;17.80;99.90
3055;DHT22;1537;52.018;8.542;2023-09-19T20:36:08;17.70;99.90
3055;DHT22;1537;52.018;8.542;2023-09-19T20:39:33;17.70;99.90
3055;DHT22;1537;52.018;8.542;2023-09-19T20:42:57;17.70;99.90
3055;DHT22;1537;52.018;8.542;2023-09-19T20:46:26;17.80;99.90
3055;DHT22;1537;52.018;8.542;2023-09-19T20:49:50;17.90;99.90
3055;DHT22;1537;52.018;8.542;2023-09-19T20:53:14;17.80;99.90
3055;DHT22;1537;52.018;8.542;2023-09-19T20:56:38;17.80;99.90
3055;DHT22;1537;52.018;8.542;2023-09-19T21:00:02;17.80;99.90
3055;DHT22;1537;52.018;8.542;2023-09-19T21:03:32;17.80;99.90
3055;DHT22;1537;52.018;8.542;2023-09-19T21:06:56;17.70;99.90
3055;DHT22;1537;52.018;8.542;2023-09-19T21:10:20;17.70;99.90
3055;DHT22;1537;52.018;8.542;2023-09-19T21:13:45;17.70;99.90
3055;DHT22;1537;52.018;8.542;2023-09-19T21:17:11;17.70;99.90
3055;DHT22;1537;52.018;8.542;2023-09-19T21:20:37;17.70;99.90
3055;DHT22;1537;52.018;8.542;2023-09-19T21:24:03;17.70;99.90
3055;DHT22;1537;52.018;8.542;2023-09-19T21:27:27;17.80;99.90
3055;DHT22;1537;52.018;8.542;2023-09-19T21:30:58;17.80;99.90
3055;DHT22;1537;52.018;8.542;2023-09-19T21:34:26;17.80;99.90
3055;DHT22;1537;52.018;8.542;2023-09-19T21:37:53;17.80;99.90
3055;DHT22;1537;52.018;8.542;2023-09-19T21:41:18;17.80;99.90
3055;DHT22;1537;52.018;8.542;2023-09-19T21:44:42;17.80;99.90
3055;DHT22;1537;52.018;8.542;2023-09-19T21:48:06;17.80;99.90
3055;DHT22;1537;52.018;8.542;2023-09-19T21:51:32;17.80;99.90
3055;DHT22;1537;52.018;8.542;2023-09-19T21:54:59;17.90;99.90
3055;DHT22;1537;52.018;8.542;2023-09-19T21:58:25;17.90;99.90
3055;DHT22;1537;52.018;8.542;2023-09-19T22:01:49;17.80;99.90
3055;DHT22;1537;52.018;8.542;2023-09-19T22:05:13;17.80;99.90
3055;DHT22;1537;52.018;8.542;2023-09-19T22:08:37;17.80;99.90
3055;DHT22;1537;52.018;8.542;2023-09-19T22:12:05;17.80;99.90
3055;DHT22;1537;52.018;8.542;2023-09-19T22:15:29;17.80;99.90
3055;DHT22;1537;52.018;8.542;2023-09-19T22:18:55;17.80;99.90
3055;DHT22;1537;52.018;8.542;2023-09-19T22:22:19;17.80;99.90
3055;DHT22;1537;52.018;8.542;2023-09-19T22:25:45;17.70;99.90
3055;DHT22;1537;52.018;8.542;2023-09-19T22:29:11;17.80;99.90